This is the latest recevied weather packets stored in our database for station/object Dunnningn. If no packets are shown the sender has not sent any weather packets the latest 10 day(s).
| Time | Temp. | Humidity | Pressure | Rain* | Wind** | Luminosity | Snow |
|---|---|---|---|---|---|---|---|
| 1777645930 | 23.33° C | 21% | 1024 hPa | 0 mm | - | - | - |
| 1777644130 | 23.33° C | 22% | 1024.2 hPa | 0 mm | - | - | - |
| 1777642330 | 22.78° C | 20% | 1024.6 hPa | 0 mm | - | - | - |
| 1777640530 | 22.22° C | 24% | 1025 hPa | 0 mm | - | - | - |
| 1777638736 | 21.67° C | 23% | 1025.1 hPa | 0 mm | - | - | - |
| 1777636931 | 21.11° C | 32% | 1025.3 hPa | 0 mm | - | - | - |
| 1777635130 | 20.56° C | 29% | 1025.5 hPa | 0 mm | - | - | - |
| 1777633331 | 19.44° C | 32% | 1025.9 hPa | 0 mm | - | - | - |
| 1777631531 | 18.89° C | 33% | 1026.2 hPa | 0 mm | - | - | - |
| 1777629731 | 17.22° C | 38% | 1026.3 hPa | 0 mm | - | - | - |
| 1777627930 | 15.56° C | 35% | 1026.5 hPa | 0 mm | - | - | - |
| 1777626132 | 14.44° C | 39% | 1026.5 hPa | 0 mm | - | - | - |
| 1777624331 | 13.33° C | 36% | 1026.5 hPa | 0 mm | - | - | - |
| 1777622532 | 11.67° C | 40% | 1026.4 hPa | 0 mm | - | - | - |
| 1777620733 | 11.11° C | 38% | 1026.4 hPa | 0 mm | - | - | - |
| 1777618930 | 10° C | 43% | 1026.2 hPa | 0 mm | - | - | - |
| 1777617131 | 2.78° C | 64% | 1026.3 hPa | 0 mm | - | - | - |
| 1777615333 | 1.67° C | 67% | 1026.1 hPa | 0 mm | - | - | - |
| 1777613531 | 0.56° C | 69% | 1025.9 hPa | 0 mm | - | - | - |
| 1777611731 | 0.56° C | 71% | 1025.8 hPa | 0 mm | - | - | - |
| 1777609931 | 0.56° C | 68% | 1025.6 hPa | 0 mm | - | - | - |
| 1777608131 | 1.11° C | 64% | 1025.4 hPa | 0 mm | - | - | - |
| 1777606332 | 1.67° C | 63% | 1025.4 hPa | 0 mm | - | - | - |
| 1777604532 | 2.22° C | 60% | 1025.6 hPa | 0 mm | - | - | - |
| 1777602733 | 3.33° C | 55% | 1025.6 hPa | 0 mm | - | - | - |
* Rain since midnight (hover to see other rain measurements)
** Current wind speed in m/s (hover to see current wind gust speed)